Time;durP1;ratioP1;P1;durP2;ratioP2;P2;SDS_P1;SDS_P2;PMS_P1;PMS_P2;Temp;Humidity;BMP_temperature;BMP_pressure;BME280_temperature;BME280_humidity;BME280_pressure;Samples;Min_cycle;Max_cycle;Signal;HPM_P1;HPM_P2
2022/03/04 00:00:20;;;;;;;50.60;19.43;;;-0.70;1.00;;;;;;4388763;28;660260;-74
2022/03/04 00:03:08;;;;;;;42.63;16.60;;;-0.70;1.00;;;;;;4367074;28;660288;-74
2022/03/04 00:05:55;;;;;;;43.47;17.83;;;-0.80;1.00;;;;;;4374064;28;659937;-73
2022/03/04 00:08:43;;;;;;;46.83;18.87;;;-0.80;1.00;;;;;;4383026;28;660269;-74
2022/03/04 00:11:30;;;;;;;47.00;19.97;;;-0.80;1.00;;;;;;4371470;28;659427;-73
2022/03/04 00:14:19;;;;;;;45.60;19.33;;;-0.80;1.00;;;;;;4386958;28;661268;-74
2022/03/04 00:17:08;;;;;;;47.30;20.50;;;-0.70;1.00;;;;;;4367928;28;659711;-74
2022/03/04 00:19:55;;;;;;;49.20;20.40;;;-0.80;1.00;;;;;;4376483;28;660107;-73
2022/03/04 00:22:43;;;;;;;47.87;20.83;;;-0.70;1.00;;;;;;4387889;28;661312;-74
2022/03/04 00:25:30;;;;;;;45.60;20.33;;;-0.70;1.00;;;;;;4371541;28;661258;-73
2022/03/04 00:28:18;;;;;;;50.93;20.90;;;-0.70;1.00;;;;;;4403004;28;661001;-74
2022/03/04 00:31:05;;;;;;;48.97;19.53;;;-0.80;1.00;;;;;;4387428;28;659730;-73
2022/03/04 00:33:54;;;;;;;54.70;20.77;;;-0.90;1.00;;;;;;4401775;28;660781;-74
2022/03/04 00:36:42;;;;;;;46.87;20.53;;;-0.90;1.00;;;;;;4385714;28;659327;-74
2022/03/04 00:39:30;;;;;;;45.43;20.33;;;-0.90;1.00;;;;;;4404854;28;660701;-74
2022/03/04 00:42:17;;;;;;;48.20;20.80;;;-0.90;1.00;;;;;;4380404;28;660797;-74
2022/03/04 00:45:05;;;;;;;51.17;20.57;;;-0.80;1.00;;;;;;4403025;28;660288;-74
2022/03/04 00:47:53;;;;;;;49.73;20.13;;;-0.80;1.00;;;;;;4381275;28;660753;-74
2022/03/04 00:50:42;;;;;;;45.50;19.23;;;-0.90;1.00;;;;;;4390263;28;659991;-73
2022/03/04 00:53:30;;;;;;;51.83;19.50;;;-0.90;1.00;;;;;;4404251;28;659957;-74
2022/03/04 00:56:17;;;;;;;47.77;20.07;;;-0.90;1.00;;;;;;4384532;28;660963;-74
2022/03/04 00:59:05;;;;;;;49.80;19.97;;;-0.90;1.00;;;;;;4406651;28;659953;-74
2022/03/04 01:01:52;;;;;;;49.27;19.03;;;-0.90;1.00;;;;;;4378887;28;660160;-74
2022/03/04 01:04:40;;;;;;;44.37;18.50;;;-0.90;1.00;;;;;;4403641;28;660426;-74
2022/03/04 01:07:29;;;;;;;45.47;18.97;;;-0.90;1.00;;;;;;4362816;28;661026;-74
2022/03/04 01:10:17;;;;;;;44.30;18.50;;;-0.90;1.00;;;;;;4366572;28;659403;-74
2022/03/04 01:13:04;;;;;;;47.50;18.30;;;-0.90;1.00;;;;;;4383728;28;660133;-74
2022/03/04 01:15:52;;;;;;;46.73;19.03;;;-0.90;1.00;;;;;;4367535;28;660439;-75
2022/03/04 01:18:39;;;;;;;45.57;18.93;;;-0.80;1.00;;;;;;4390600;28;659421;-74
2022/03/04 01:21:26;;;;;;;43.27;17.80;;;-0.80;1.00;;;;;;4384666;28;660511;-74
2022/03/04 01:24:15;;;;;;;45.00;18.33;;;-0.80;1.00;;;;;;4402458;28;659764;-74
2022/03/04 01:27:03;;;;;;;43.13;18.40;;;-0.80;1.00;;;;;;4381223;28;661073;-75
2022/03/04 01:29:50;;;;;;;43.88;18.45;;;-0.80;1.00;;;;;;4382594;28;659696;-73
2022/03/04 01:32:38;;;;;;;46.70;19.73;;;-0.80;1.00;;;;;;4400497;28;660784;-74
2022/03/04 01:35:25;;;;;;;41.47;18.10;;;-0.90;1.00;;;;;;4387339;28;659743;-73
2022/03/04 01:38:13;;;;;;;44.13;18.20;;;-1.00;1.00;;;;;;4401872;28;661125;-74
2022/03/04 01:41:02;;;;;;;46.10;19.57;;;-1.00;1.00;;;;;;4383627;28;659887;-73
2022/03/04 01:43:49;;;;;;;47.85;18.30;;;-1.00;1.00;;;;;;4402108;28;659356;-74
2022/03/04 01:46:37;;;;;;;55.17;20.83;;;-1.00;1.00;;;;;;4363932;28;661423;-74
2022/03/04 01:49:24;;;;;;;49.20;18.93;;;-0.90;1.00;;;;;;4401638;28;659616;-74
2022/03/04 01:52:12;;;;;;;48.77;20.20;;;-0.90;1.00;;;;;;4382939;28;661100;-74
2022/03/04 01:54:59;;;;;;;48.83;21.13;;;-0.90;1.00;;;;;;4356107;28;1382076;-74
2022/03/04 01:57:48;;;;;;;53.30;21.08;;;-0.90;1.00;;;;;;4379269;28;661162;-74
2022/03/04 02:00:36;;;;;;;50.90;21.30;;;-1.00;1.00;;;;;;4382528;28;661316;-73
2022/03/04 02:03:24;;;;;;;53.67;23.77;;;-1.10;1.00;;;;;;4404231;28;660921;-74
2022/03/04 02:06:11;;;;;;;56.50;22.98;;;-1.00;1.00;;;;;;4384018;28;660026;-73
2022/03/04 02:08:59;;;;;;;52.13;22.53;;;-1.00;1.00;;;;;;4408518;28;660303;-74
2022/03/04 02:11:48;;;;;;;58.17;23.73;;;-1.00;1.00;;;;;;4373607;28;659595;-74
2022/03/04 02:14:37;;;;;;;56.37;23.00;;;-1.00;1.00;;;;;;4384308;28;661043;-74
2022/03/04 02:17:24;;;;;;;54.97;21.63;;;-1.00;1.00;;;;;;4402668;28;660253;-74
2022/03/04 02:20:12;;;;;;;55.37;22.07;;;-1.00;1.00;;;;;;4382489;28;659977;-75
2022/03/04 02:23:01;;;;;;;52.17;21.23;;;-0.90;1.00;;;;;;4391548;28;659469;-75
2022/03/04 02:25:49;;;;;;;47.20;21.60;;;-0.90;1.00;;;;;;4376342;28;660713;-74
2022/03/04 02:28:37;;;;;;;49.40;20.97;;;-1.00;1.00;;;;;;4382219;28;661879;-73
2022/03/04 02:31:25;;;;;;;46.57;19.23;;;-0.90;1.00;;;;;;4400467;28;660028;-74
2022/03/04 02:34:12;;;;;;;50.00;20.93;;;-1.00;1.00;;;;;;4378748;28;661122;-74
2022/03/04 02:37:00;;;;;;;43.37;18.03;;;-1.00;1.00;;;;;;4404605;28;659949;-74
2022/03/04 02:39:50;;;;;;;43.83;18.23;;;-1.00;1.00;;;;;;4374010;28;660739;-74
2022/03/04 02:42:38;;;;;;;44.40;17.17;;;-1.00;1.00;;;;;;4378884;28;660996;-74
2022/03/04 02:45:26;;;;;;;40.40;17.13;;;-1.00;1.00;;;;;;4383800;28;659516;-73
2022/03/04 02:48:13;;;;;;;39.03;16.20;;;-1.00;1.00;;;;;;4390578;28;660005;-74
2022/03/04 02:51:00;;;;;;;40.20;17.07;;;-1.00;1.00;;;;;;4379665;28;659824;-73
2022/03/04 02:53:48;;;;;;;37.63;16.53;;;-1.00;1.00;;;;;;4409185;28;660660;-74
2022/03/04 02:56:37;;;;;;;36.53;16.20;;;-1.00;1.00;;;;;;4386155;28;660256;-73
2022/03/04 02:59:24;;;;;;;41.65;16.23;;;-1.00;1.00;;;;;;4386631;28;660278;-74
2022/03/04 03:02:12;;;;;;;41.00;16.37;;;-1.00;1.00;;;;;;4368451;28;660363;-74
2022/03/04 03:05:00;;;;;;;40.47;16.23;;;-1.00;1.00;;;;;;4393538;28;660644;-74
2022/03/04 03:07:47;;;;;;;39.00;16.77;;;-1.00;1.00;;;;;;4377661;28;660771;-74
2022/03/04 03:10:35;;;;;;;34.75;15.80;;;-1.10;1.00;;;;;;4394663;28;660400;-74
2022/03/04 03:13:24;;;;;;;37.67;15.57;;;-1.10;1.00;;;;;;4361789;28;660811;-74
2022/03/04 03:16:11;;;;;;;35.67;14.77;;;-1.10;1.00;;;;;;4368903;28;659216;-74
2022/03/04 03:18:58;;;;;;;36.47;15.27;;;-1.10;1.00;;;;;;4394341;28;661359;-74
2022/03/04 03:21:46;;;;;;;31.87;13.73;;;-1.10;1.00;;;;;;4382166;28;661002;-74
2022/03/04 03:24:33;;;;;;;36.40;16.00;;;-1.10;1.00;;;;;;4382795;28;660959;-74
2022/03/04 03:27:21;;;;;;;35.80;15.20;;;-1.10;1.00;;;;;;4367905;28;659456;-73
2022/03/04 03:30:11;;;;;;;39.80;16.23;;;-1.10;1.00;;;;;;4384739;28;659958;-74
2022/03/04 03:32:59;;;;;;;36.43;15.40;;;-1.10;1.00;;;;;;4375171;28;660207;-74
2022/03/04 03:35:46;;;;;;;39.93;16.93;;;-1.10;1.00;;;;;;4385243;28;659697;-74
2022/03/04 03:38:34;;;;;;;36.60;15.93;;;-1.20;1.00;;;;;;4406844;28;660760;-74
2022/03/04 03:41:21;;;;;;;38.63;16.20;;;-1.10;1.00;;;;;;4380922;28;659672;-74
2022/03/04 03:44:09;;;;;;;45.53;16.50;;;-1.10;1.00;;;;;;4404011;28;660494;-74
2022/03/04 03:46:58;;;;;;;37.07;16.47;;;-1.00;1.00;;;;;;4383941;28;660872;-74
2022/03/04 03:49:45;;;;;;;38.13;16.63;;;-1.00;1.00;;;;;;4385833;28;660290;-73
2022/03/04 03:52:33;;;;;;;37.30;15.30;;;-1.00;1.00;;;;;;4400874;28;660602;-74
2022/03/04 03:55:21;;;;;;;42.90;16.93;;;-1.10;1.00;;;;;;4380383;28;660100;-73
2022/03/04 03:58:08;;;;;;;42.00;17.07;;;-1.10;1.00;;;;;;4405170;28;660894;-74
2022/03/04 04:00:56;;;;;;;41.00;16.40;;;-1.10;1.00;;;;;;4369292;28;661214;-73
2022/03/04 04:03:45;;;;;;;42.13;16.50;;;-1.10;1.00;;;;;;4402709;28;660189;-74
2022/03/04 04:06:32;;;;;;;45.23;17.77;;;-1.00;1.00;;;;;;4376199;28;660967;-74
2022/03/04 04:09:20;;;;;;;38.97;15.80;;;-1.00;1.00;;;;;;4397424;28;660824;-74
2022/03/04 04:12:08;;;;;;;42.73;16.73;;;-0.90;1.00;;;;;;4377642;28;661169;-74
2022/03/04 04:14:56;;;;;;;43.00;17.03;;;-0.90;1.00;;;;;;4376727;28;661122;-74
2022/03/04 04:17:43;;;;;;;44.03;17.70;;;-0.90;1.00;;;;;;4392741;28;660058;-74
2022/03/04 04:20:32;;;;;;;43.00;16.73;;;-0.90;1.00;;;;;;4363114;28;659715;-73
2022/03/04 04:23:19;;;;;;;45.97;17.83;;;-0.90;1.00;;;;;;4382036;28;660140;-74
2022/03/04 04:26:08;;;;;;;41.53;18.33;;;-0.90;1.00;;;;;;4363981;28;660704;-74
2022/03/04 04:28:56;;;;;;;52.83;19.03;;;-0.90;1.00;;;;;;4381024;28;660834;-73
2022/03/04 04:31:43;;;;;;;46.00;18.83;;;-1.00;1.00;;;;;;4384740;28;660296;-74
2022/03/04 04:34:31;;;;;;;46.80;18.27;;;-1.00;1.00;;;;;;4370259;28;659813;-74
2022/03/04 04:37:19;;;;;;;47.30;18.50;;;-1.00;8.70;;;;;;4385845;28;660927;-75
2022/03/04 04:40:08;;;;;;;51.90;20.03;;;-0.90;18.90;;;;;;4365197;28;660631;-75
2022/03/04 04:42:56;;;;;;;48.30;19.57;;;-0.90;19.50;;;;;;4361046;28;662665;-74
2022/03/04 04:45:43;;;;;;;44.75;18.92;;;-0.90;26.20;;;;;;4387791;28;661834;-74
2022/03/04 04:48:31;;;;;;;44.57;19.47;;;-1.00;43.60;;;;;;4376698;28;660414;-73
2022/03/04 04:51:18;;;;;;;50.97;20.07;;;-1.00;90.20;;;;;;4379700;28;660948;-75
2022/03/04 04:54:07;;;;;;;51.83;20.73;;;-0.90;86.10;;;;;;4369218;28;661903;-74
2022/03/04 04:56:55;;;;;;;46.27;18.97;;;-1.00;92.00;;;;;;4399776;28;660840;-74
2022/03/04 04:59:42;;;;;;;46.27;19.67;;;-0.90;99.90;;;;;;4378233;28;661817;-74
2022/03/04 05:02:30;;;;;;;47.33;18.87;;;-1.00;99.90;;;;;;4394673;28;661029;-73
2022/03/04 05:05:17;;;;;;;50.67;20.90;;;-0.90;99.90;;;;;;4372415;28;661323;-74
2022/03/04 05:08:05;;;;;;;45.73;19.17;;;-1.00;99.90;;;;;;4398255;28;661270;-74
2022/03/04 05:10:54;;;;;;;58.80;21.70;;;-1.00;99.90;;;;;;4381596;28;662000;-74
2022/03/04 05:13:41;;;;;;;49.90;19.07;;;-1.00;99.90;;;;;;4379794;28;660740;-74
2022/03/04 05:16:29;;;;;;;51.10;20.13;;;-1.10;99.90;;;;;;4400169;28;661616;-74
2022/03/04 05:19:16;;;;;;;53.50;21.43;;;-1.10;99.90;;;;;;4380870;28;660630;-74
2022/03/04 05:22:04;;;;;;;50.83;21.73;;;-1.10;99.90;;;;;;4397960;28;661134;-74
2022/03/04 05:24:51;;;;;;;51.30;20.37;;;-1.10;99.90;;;;;;4379618;28;660643;-74
2022/03/04 05:27:40;;;;;;;53.73;20.87;;;-1.10;99.90;;;;;;4381728;28;661216;-74
2022/03/04 05:30:28;;;;;;;53.10;22.03;;;-1.00;99.90;;;;;;4374157;28;661509;-74
2022/03/04 05:33:15;;;;;;;52.43;20.70;;;-1.00;99.90;;;;;;4377539;28;661115;-73
2022/03/04 05:36:03;;;;;;;57.37;22.20;;;-1.00;99.90;;;;;;4406581;28;661608;-74
2022/03/04 05:39:40;;;;;;;53.15;21.50;;;-0.90;99.90;;;;;;4376760;28;661469;-73
2022/03/04 05:42:27;;;;;;;52.60;20.87;;;-0.90;99.90;;;;;;4354830;28;660994;-74
2022/03/04 05:45:16;;;;;;;57.35;22.15;;;-0.90;99.90;;;;;;4394172;28;661600;-74
2022/03/04 05:48:04;;;;;;;50.27;20.57;;;-0.90;99.90;;;;;;4356705;28;661295;-74
2022/03/04 05:50:51;;;;;;;52.57;22.27;;;-0.90;99.90;;;;;;4366065;28;660657;-74
2022/03/04 05:53:39;;;;;;;53.37;22.30;;;-0.90;99.90;;;;;;4400347;28;661857;-74
2022/03/04 05:56:26;;;;;;;59.20;22.60;;;-0.90;1.00;;;;;;4381885;28;660599;-74
2022/03/04 05:59:14;;;;;;;58.47;22.37;;;-0.90;99.90;;;;;;4394988;28;659920;-74
2022/03/04 06:02:03;;;;;;;60.43;22.87;;;-0.90;1.00;;;;;;4377451;28;662157;-74
2022/03/04 06:04:51;;;;;;;57.13;22.43;;;-0.80;1.00;;;;;;4359216;28;659803;-74
2022/03/04 06:07:38;;;;;;;53.53;20.83;;;-0.80;1.00;;;;;;4401638;28;660201;-74
2022/03/04 06:10:26;;;;;;;54.43;22.03;;;-0.70;1.00;;;;;;4380994;28;659841;-73
2022/03/04 06:13:13;;;;;;;57.50;21.33;;;-0.70;1.00;;;;;;4398908;28;660754;-75
2022/03/04 06:16:01;;;;;;;60.73;23.93;;;-0.70;99.90;;;;;;4379155;28;659985;-74
2022/03/04 06:18:51;;;;;;;58.20;22.37;;;-0.60;1.00;;;;;;4399118;28;661996;-75
2022/03/04 06:21:39;;;;;;;58.83;22.27;;;-0.60;1.00;;;;;;4377364;28;660545;-75
2022/03/04 06:24:26;;;;;;;58.83;22.37;;;-0.50;1.00;;;;;;4383624;28;660226;-74
2022/03/04 06:27:14;;;;;;;59.57;23.03;;;-0.60;1.00;;;;;;4399020;28;659682;-75
2022/03/04 06:30:01;;;;;;;61.05;21.63;;;-0.60;99.90;;;;;;4377785;28;659438;-74
2022/03/04 06:32:49;;;;;;;58.40;22.97;;;-0.50;99.90;;;;;;4380479;28;661057;-75
2022/03/04 06:35:38;;;;;;;65.03;22.43;;;-0.50;1.00;;;;;;4359494;28;660868;-74
2022/03/04 06:38:26;;;;;;;64.50;23.93;;;-0.40;1.00;;;;;;4362305;28;659406;-72
2022/03/04 06:41:14;;;;;;;60.90;23.60;;;-0.40;1.00;;;;;;4390241;28;660571;-73
2022/03/04 06:44:01;;;;;;;64.43;23.53;;;-0.40;1.00;;;;;;4366756;28;659911;-73
2022/03/04 06:46:49;;;;;;;64.23;24.50;;;-0.30;1.00;;;;;;4392586;28;660860;-73
2022/03/04 06:49:38;;;;;;;62.43;23.77;;;-0.30;1.00;;;;;;4374218;28;660167;-73
2022/03/04 06:52:27;;;;;;;56.13;21.63;;;-0.30;1.00;;;;;;4393707;28;659853;-73
2022/03/04 06:55:15;;;;;;;63.43;24.07;;;-0.20;1.00;;;;;;4400476;28;659992;-73
2022/03/04 06:58:02;;;;;;;64.70;22.70;;;-0.20;99.90;;;;;;4378369;28;661344;-73
2022/03/04 07:00:50;;;;;;;64.27;23.37;;;-0.20;1.00;;;;;;4401163;28;661236;-73
2022/03/04 07:03:37;;;;;;;59.50;23.37;;;-0.20;1.00;;;;;;4379433;28;660753;-73
2022/03/04 07:06:25;;;;;;;64.23;23.80;;;-0.10;1.00;;;;;;4400660;28;659879;-73
2022/03/04 07:09:14;;;;;;;68.40;24.17;;;-0.10;1.00;;;;;;4378223;28;660761;-73
2022/03/04 07:12:01;;;;;;;61.37;21.97;;;0.00;1.00;;;;;;4379045;28;659775;-73
2022/03/04 07:14:49;;;;;;;68.57;26.33;;;0.10;1.00;;;;;;4399384;28;659400;-73
2022/03/04 07:17:36;;;;;;;68.25;23.73;;;0.10;99.90;;;;;;4374159;28;658584;-73
2022/03/04 07:20:24;;;;;;;66.73;24.37;;;0.00;99.90;;;;;;4404305;28;660329;-73
2022/03/04 07:23:11;;;;;;;67.80;24.13;;;0.00;1.00;;;;;;4378339;28;659542;-72
2022/03/04 07:26:00;;;;;;;71.07;25.67;;;0.00;1.00;;;;;;4401627;28;660556;-73
2022/03/04 07:28:48;;;;;;;71.63;26.03;;;0.00;1.00;;;;;;4378323;28;659356;-73
2022/03/04 07:31:36;;;;;;;73.50;24.17;;;0.20;1.00;;;;;;4385218;28;658619;-73
2022/03/04 07:34:23;;;;;;;65.50;25.20;;;0.20;1.00;;;;;;4407321;28;659830;-73
2022/03/04 07:37:11;;;;;;;66.43;25.40;;;0.30;1.00;;;;;;4383103;28;658767;-72
2022/03/04 07:39:58;;;;;;;68.83;25.93;;;0.40;99.90;;;;;;4401699;28;660404;-73
2022/03/04 07:42:47;;;;;;;66.37;24.47;;;0.50;99.90;;;;;;4387720;28;659484;-72
2022/03/04 07:45:34;;;;;;;60.00;22.13;;;0.50;99.90;;;;;;4404453;28;660149;-73
2022/03/04 07:48:22;;;;;;;62.37;23.77;;;0.60;99.90;;;;;;4381781;28;660526;-73
2022/03/04 07:51:09;;;;;;;67.50;24.70;;;0.70;99.90;;;;;;4401831;28;659624;-73
2022/03/04 07:53:57;;;;;;;57.53;23.20;;;0.70;99.90;;;;;;4386337;28;659726;-73
2022/03/04 07:56:44;;;;;;;66.00;22.73;;;0.70;99.90;;;;;;4412792;28;659925;-73
2022/03/04 07:59:34;;;;;;;58.77;23.83;;;0.70;99.90;;;;;;4378398;28;660311;-73
2022/03/04 08:02:21;;;;;;;64.90;24.30;;;0.70;99.90;;;;;;4385825;28;659480;-73
2022/03/04 08:05:09;;;;;;;69.00;24.37;;;0.70;99.90;;;;;;4409457;28;659943;-73
2022/03/04 08:07:57;;;;;;;61.10;21.80;;;0.80;99.90;;;;;;4380827;28;659958;-73
2022/03/04 08:10:44;;;;;;;62.83;23.60;;;0.80;99.90;;;;;;4403290;28;660241;-73
2022/03/04 08:13:34;;;;;;;62.50;23.27;;;0.80;99.90;;;;;;4381610;28;659685;-73
2022/03/04 08:16:24;;;;;;;69.43;25.03;;;0.80;99.90;;;;;;4384427;28;659835;-73
2022/03/04 08:19:11;;;;;;;64.73;23.90;;;0.90;99.90;;;;;;4392486;28;660049;-73
2022/03/04 08:21:59;;;;;;;69.87;24.83;;;0.80;99.90;;;;;;4412485;28;661071;-73
2022/03/04 08:24:46;;;;;;;68.80;24.67;;;0.80;99.90;;;;;;4378358;28;660010;-73
2022/03/04 08:27:37;;;;;;;71.30;25.17;;;0.70;99.90;;;;;;4399726;28;660733;-73
2022/03/04 08:30:26;;;;;;;62.15;24.63;;;0.70;99.90;;;;;;4373474;28;660223;-73
2022/03/04 08:33:16;;;;;;;61.90;23.70;;;0.70;99.90;;;;;;4407009;28;661193;-73
2022/03/04 08:36:04;;;;;;;64.70;24.97;;;0.80;99.90;;;;;;4376790;28;660755;-74
2022/03/04 08:38:51;;;;;;;69.88;26.23;;;0.80;99.90;;;;;;4380066;28;659877;-73
2022/03/04 08:41:41;;;;;;;68.47;26.27;;;0.70;99.90;;;;;;4402758;28;659178;-73
2022/03/04 08:44:28;;;;;;;61.20;22.47;;;0.80;99.90;;;;;;4376046;28;660103;-73
2022/03/04 08:47:16;;;;;;;68.20;25.30;;;0.90;1.00;;;;;;4386650;28;659728;-73
2022/03/04 08:50:06;;;;;;;69.80;26.10;;;1.00;99.90;;;;;;4410564;28;659452;-73
2022/03/04 08:52:54;;;;;;;70.83;26.10;;;1.10;99.90;;;;;;4377232;28;660181;-73
2022/03/04 08:55:44;;;;;;;75.97;26.43;;;1.10;99.90;;;;;;4386630;28;660559;-73
2022/03/04 08:58:32;;;;;;;63.20;24.17;;;1.30;99.90;;;;;;4378136;28;659557;-73
2022/03/04 09:01:19;;;;;;;66.13;25.20;;;1.30;99.90;;;;;;4404909;28;661422;-73
2022/03/04 09:04:07;;;;;;;60.30;22.70;;;1.40;99.90;;;;;;4382274;28;660261;-73
2022/03/04 09:06:56;;;;;;;63.80;23.80;;;1.30;99.90;;;;;;4406350;28;659235;-73
2022/03/04 09:09:43;;;;;;;59.37;20.90;;;1.20;99.90;;;;;;4377449;28;660213;-73
2022/03/04 09:12:31;;;;;;;72.70;25.00;;;1.20;99.90;;;;;;4372381;28;660111;-73
2022/03/04 09:15:19;;;;;;;61.53;23.77;;;1.30;99.90;;;;;;4405728;28;661820;-73
2022/03/04 09:18:06;;;;;;;61.87;23.70;;;1.30;99.90;;;;;;4384898;28;660204;-73
2022/03/04 09:20:54;;;;;;;65.47;24.77;;;1.30;99.90;;;;;;4405144;28;660184;-73
2022/03/04 09:23:43;;;;;;;62.20;23.77;;;1.30;99.90;;;;;;4385185;28;661105;-73
2022/03/04 09:26:31;;;;;;;61.27;23.27;;;1.10;58.60;;;;;;4368624;28;659761;-73
2022/03/04 09:29:18;;;;;;;62.50;23.83;;;1.00;99.90;;;;;;4374968;28;660211;-73
2022/03/04 09:32:07;;;;;;;61.27;23.43;;;1.00;99.90;;;;;;4385091;28;659749;-72
2022/03/04 09:34:54;;;;;;;63.47;23.97;;;1.00;99.90;;;;;;4396242;28;660561;-73
2022/03/04 09:37:42;;;;;;;63.67;23.47;;;1.00;99.90;;;;;;4374955;28;659922;-72
2022/03/04 09:40:31;;;;;;;62.20;23.07;;;1.00;99.90;;;;;;4401391;28;659398;-73
2022/03/04 09:43:19;;;;;;;62.38;22.75;;;1.00;99.90;;;;;;4359473;28;660144;-73
2022/03/04 09:46:06;;;;;;;67.37;24.17;;;1.10;99.90;;;;;;4373780;28;660082;-72
2022/03/04 09:48:54;;;;;;;64.17;23.63;;;1.10;99.90;;;;;;4399740;28;660100;-73
2022/03/04 09:51:42;;;;;;;75.40;26.00;;;1.10;99.90;;;;;;4367044;28;660022;-73
2022/03/04 09:54:29;;;;;;;68.90;25.83;;;1.20;99.90;;;;;;4385293;28;660017;-73
2022/03/04 09:57:19;;;;;;;61.70;23.67;;;1.20;99.90;;;;;;4369949;28;660883;-73
2022/03/04 10:00:07;;;;;;;60.30;23.00;;;1.30;99.90;;;;;;4371582;28;659681;-73
2022/03/04 10:02:55;;;;;;;62.33;23.60;;;1.30;99.90;;;;;;4385972;28;660272;-73
2022/03/04 10:05:51;;;;;;;62.97;23.03;;;1.30;99.90;;;;;;4364726;28;660420;-73
2022/03/04 10:08:40;;;;;;;59.90;24.03;;;1.30;99.90;;;;;;4367840;28;659988;-73
2022/03/04 10:11:29;;;;;;;64.90;23.97;;;1.40;99.90;;;;;;4368416;28;660600;-73
2022/03/04 10:14:18;;;;;;;61.58;24.02;;;1.50;99.90;;;;;;4365386;28;660049;-73
2022/03/04 10:17:05;;;;;;;59.47;22.97;;;1.60;99.90;;;;;;4375629;28;659525;-73
2022/03/04 10:19:54;;;;;;;57.63;22.77;;;1.70;15.00;;;;;;4386287;28;660656;-73
2022/03/04 10:22:45;;;;;;;61.57;24.37;;;1.80;57.60;;;;;;4366528;28;659476;-73
2022/03/04 10:25:32;;;;;;;53.30;21.20;;;1.90;12.10;;;;;;4364215;28;660910;-72
2022/03/04 10:28:20;;;;;;;52.93;21.03;;;2.10;1.00;;;;;;4388059;28;660043;-73
2022/03/04 10:31:09;;;;;;;58.77;21.57;;;2.40;1.00;;;;;;4363447;28;660023;-72
2022/03/04 10:34:07;;;;;;;57.30;22.23;;;2.50;1.00;;;;;;4374801;28;658853;-73
2022/03/04 10:36:55;;;;;;;57.70;22.57;;;2.70;1.00;;;;;;4359147;28;660026;-73
2022/03/04 10:39:57;;;;;;;55.23;20.63;;;2.90;1.00;;;;;;4364609;28;659303;-72
2022/03/04 10:42:50;;;;;;;52.57;19.90;;;3.00;1.00;;;;;;4359831;28;658870;-73
2022/03/04 10:45:45;;;;;;;51.17;19.87;;;3.10;1.00;;;;;;4365798;28;659536;-72
2022/03/04 10:48:34;;;;;;;46.72;19.73;;;3.30;1.00;;;;;;4365618;28;659571;-72
2022/03/04 10:51:36;;;;;;;54.17;19.30;;;3.30;1.00;;;;;;4393908;28;658562;-72
2022/03/04 10:54:23;;;;;;;77.00;24.53;;;3.50;1.00;;;;;;4384159;28;658929;-72
2022/03/04 10:57:11;;;;;;;46.20;18.73;;;3.50;1.00;;;;;;4391049;28;661440;-73
2022/03/04 10:59:58;;;;;;;50.67;19.30;;;3.60;1.00;;;;;;4403048;28;659067;-73
2022/03/04 11:02:46;;;;;;;40.80;16.80;;;3.90;1.00;;;;;;4384735;28;658349;-72
2022/03/04 11:05:36;;;;;;;43.83;16.87;;;3.90;1.00;;;;;;4408525;28;659045;-73
2022/03/04 11:08:23;;;;;;;44.13;17.03;;;4.00;1.00;;;;;;4380146;28;658969;-73
2022/03/04 11:11:11;;;;;;;41.33;18.20;;;4.10;1.00;;;;;;4379724;28;658568;-73
2022/03/04 11:13:58;;;;;;;45.90;19.20;;;4.00;1.00;;;;;;4406451;28;659516;-73
2022/03/04 11:16:46;;;;;;;36.65;14.52;;;4.20;1.00;;;;;;4383738;28;660095;-73
2022/03/04 11:19:35;;;;;;;33.10;13.67;;;4.40;1.00;;;;;;4407572;28;659780;-73
2022/03/04 11:22:24;;;;;;;32.03;13.95;;;4.50;1.00;;;;;;4387736;28;659897;-73
2022/03/04 11:25:15;;;;;;;37.13;14.60;;;4.70;1.00;;;;;;4385425;28;658870;-73
2022/03/04 11:28:10;;;;;;;32.90;14.30;;;4.90;1.00;;;;;;4376321;28;659951;-73
2022/03/04 11:31:00;;;;;;;35.13;14.43;;;4.90;1.00;;;;;;4358596;28;658970;-73
2022/03/04 11:33:51;;;;;;;40.10;15.33;;;4.80;1.00;;;;;;4382796;28;659922;-73
2022/03/04 11:36:39;;;;;;;27.77;12.77;;;4.60;1.00;;;;;;4380729;28;658956;-72
2022/03/04 11:39:28;;;;;;;31.43;13.10;;;4.60;1.00;;;;;;4379224;28;658550;-73
2022/03/04 11:42:16;;;;;;;35.07;14.57;;;4.60;1.00;;;;;;4385711;28;658948;-72
2022/03/04 11:45:04;;;;;;;30.53;12.57;;;4.70;1.00;;;;;;4402007;28;660283;-73
2022/03/04 11:47:55;;;;;;;31.20;12.67;;;4.80;1.00;;;;;;4385036;28;658783;-72
2022/03/04 11:50:49;;;;;;;27.58;12.02;;;4.90;1.00;;;;;;4377310;28;659726;-73
2022/03/04 11:53:37;;;;;;;33.50;13.50;;;5.10;1.00;;;;;;4349536;28;659434;-73
2022/03/04 11:56:26;;;;;;;27.93;11.90;;;5.10;1.00;;;;;;4382421;28;658267;-73
2022/03/04 11:59:19;;;;;;;22.17;10.77;;;5.00;1.00;;;;;;4382972;28;659458;-73
2022/03/04 12:02:08;;;;;;;24.00;11.60;;;4.90;1.00;;;;;;4382392;28;658818;-72
2022/03/04 12:05:25;;;;;;;29.27;12.13;;;4.60;1.00;;;;;;4396028;28;658850;-72
2022/03/04 12:08:13;;;;;;;28.17;12.37;;;4.60;1.00;;;;;;4359289;28;659878;-72
2022/03/04 12:11:01;;;;;;;28.67;12.57;;;4.60;1.00;;;;;;4384615;28;658397;-72
2022/03/04 12:13:50;;;;;;;28.15;11.90;;;4.60;1.00;;;;;;4410079;28;659032;-73
2022/03/04 12:16:48;;;;;;;27.80;12.00;;;4.60;1.00;;;;;;4384151;28;659400;-72
2022/03/04 12:19:36;;;;;;;29.27;13.63;;;4.60;1.00;;;;;;4363211;28;658620;-73
2022/03/04 12:22:25;;;;;;;48.03;17.33;;;4.50;1.00;;;;;;4405192;28;659128;-72
2022/03/04 12:25:12;;;;;;;40.87;15.67;;;4.40;1.00;;;;;;4382639;28;659349;-72
2022/03/04 12:28:00;;;;;;;32.70;13.90;;;4.40;1.00;;;;;;4407096;28;658639;-72
2022/03/04 12:30:50;;;;;;;33.53;13.40;;;4.40;1.00;;;;;;4382155;28;659541;-72
2022/03/04 12:33:38;;;;;;;33.53;12.80;;;4.20;1.00;;;;;;4373576;28;660300;-73
2022/03/04 12:36:28;;;;;;;28.60;13.03;;;4.10;1.00;;;;;;4367251;28;658451;-72
2022/03/04 12:39:18;;;;;;;27.10;11.73;;;4.10;1.00;;;;;;4388313;28;658682;-72
2022/03/04 12:42:07;;;;;;;30.33;12.43;;;4.10;1.00;;;;;;4385806;28;658717;-72
2022/03/04 12:44:57;;;;;;;29.73;12.47;;;4.10;1.00;;;;;;4381034;28;658810;-72
2022/03/04 12:47:46;;;;;;;28.97;12.03;;;4.10;1.00;;;;;;4386124;28;659583;-72
2022/03/04 12:50:35;;;;;;;35.13;13.57;;;4.20;1.00;;;;;;4376966;28;658899;-73
2022/03/04 12:53:23;;;;;;;32.43;13.83;;;4.30;1.00;;;;;;4382879;28;658935;-73
2022/03/04 12:56:12;;;;;;;30.90;12.90;;;4.20;1.00;;;;;;4381416;28;658536;-73
2022/03/04 12:59:01;;;;;;;30.80;12.87;;;4.20;1.00;;;;;;4397397;28;658529;-72
2022/03/04 13:01:50;;;;;;;30.00;12.30;;;4.00;1.00;;;;;;4380648;28;659720;-73
2022/03/04 13:04:39;;;;;;;35.73;13.73;;;3.70;1.00;;;;;;4353711;28;659455;-72
2022/03/04 13:07:26;;;;;;;37.10;14.77;;;3.40;1.00;;;;;;4366405;28;660684;-73
2022/03/04 13:10:14;;;;;;;38.43;15.20;;;3.20;1.00;;;;;;4402813;28;659705;-73
2022/03/04 13:13:01;;;;;;;36.67;15.07;;;2.90;1.00;;;;;;4384899;28;659177;-73
2022/03/04 13:15:49;;;;;;;40.67;16.97;;;2.70;1.00;;;;;;4401639;28;659559;-73
2022/03/04 13:18:37;;;;;;;40.27;14.97;;;2.70;1.00;;;;;;4380985;28;658477;-73
2022/03/04 13:21:43;;;;;;;36.83;15.80;;;2.80;1.00;;;;;;4404723;28;658563;-73
2022/03/04 13:24:31;;;;;;;35.70;15.87;;;2.90;1.00;;;;;;4371993;28;658771;-72
2022/03/04 13:27:19;;;;;;;33.47;14.30;;;2.90;1.00;;;;;;4409974;28;659010;-73
2022/03/04 13:30:07;;;;;;;40.53;15.43;;;3.00;1.00;;;;;;4380607;28;659097;-72
2022/03/04 13:32:56;;;;;;;31.67;13.90;;;3.00;1.00;;;;;;4394387;28;658210;-72
2022/03/04 13:35:49;;;;;;;38.80;14.87;;;3.00;1.00;;;;;;4382331;28;660120;-73
2022/03/04 13:38:40;;;;;;;37.57;14.83;;;3.10;1.00;;;;;;4339260;28;659285;-73
2022/03/04 13:41:27;;;;;;;32.47;13.07;;;3.10;1.00;;;;;;4385241;28;659511;-72
2022/03/04 13:44:15;;;;;;;34.20;14.23;;;3.10;1.00;;;;;;4387981;28;658799;-72
2022/03/04 13:47:05;;;;;;;32.20;13.60;;;3.20;1.00;;;;;;4378179;28;659808;-72
2022/03/04 13:49:52;;;;;;;32.23;12.87;;;3.20;1.00;;;;;;4383314;28;659436;-72
2022/03/04 13:52:54;;;;;;;32.30;12.37;;;3.10;1.00;;;;;;4395720;28;658742;-72
2022/03/04 13:55:44;;;;;;;35.40;12.93;;;3.00;1.00;;;;;;4351524;28;659410;-72
2022/03/04 13:58:32;;;;;;;29.67;12.50;;;3.00;1.00;;;;;;4369014;28;658570;-75
2022/03/04 14:01:34;;;;;;;29.93;13.13;;;2.90;1.00;;;;;;4391774;28;658816;-73
2022/03/04 14:04:21;;;;;;;30.57;13.00;;;2.90;1.00;;;;;;4356063;28;659270;-74
2022/03/04 14:07:09;;;;;;;28.37;11.73;;;2.90;1.00;;;;;;4403168;28;658398;-74
2022/03/04 14:09:57;;;;;;;28.93;11.90;;;2.90;1.00;;;;;;4378069;28;660555;-72
2022/03/04 14:12:46;;;;;;;27.77;11.37;;;2.90;1.00;;;;;;4400341;28;658564;-73
2022/03/04 14:15:34;;;;;;;27.63;12.43;;;3.00;1.00;;;;;;4378472;28;659342;-73